Time;durP1;ratioP1;P1;durP2;ratioP2;P2;SDS_P1;SDS_P2;PMS_P1;PMS_P2;Temp;Humidity;BMP_temperature;BMP_pressure;BME280_temperature;BME280_humidity;BME280_pressure;Samples;Min_cycle;Max_cycle;Signal;HPM_P1;HPM_P2
2023/01/16 00:01:00;;;;;;;;;;;;;;;;;;5085532;28;20527;-85
2023/01/16 00:03:28;;;;;;;;;;;;;;;;;;5089644;28;20304;-84
2023/01/16 00:05:55;;;;;;;;;;;;;;;;;;5088347;28;20295;-85
2023/01/16 00:08:23;;;;;;;;;;;;;;;;;;5089124;28;20395;-86
2023/01/16 00:10:50;;;;;;;;;;;;;;;;;;5088185;28;19925;-86
2023/01/16 00:13:18;;;;;;;;;;;;;;;;;;5084290;28;19928;-86
2023/01/16 00:15:45;;;;;;;;;;;;;;;;;;5083301;28;20392;-85
2023/01/16 00:18:13;;;;;;;;;;;;;;;;;;5072226;28;19931;-86
2023/01/16 00:20:46;;;;;;;;;;;;;;;;;;5079444;28;19924;-85
2023/01/16 00:23:18;;;;;;;;;;;;;;;;;;5082016;28;19935;-85
2023/01/16 00:25:46;;;;;;;;;;;;;;;;;;5091223;28;19932;-85
2023/01/16 00:28:18;;;;;;;;;;;;;;;;;;5088328;28;19935;-85
2023/01/16 00:30:45;;;;;;;;;;;;;;;;;;5087103;28;20580;-84
2023/01/16 00:33:13;;;;;;;;;;;;;;;;;;5090202;28;19931;-85
2023/01/16 00:35:41;;;;;;;;;;;;;;;;;;5085592;28;19946;-85
2023/01/16 00:38:13;;;;;;;;;;;;;;;;;;5085302;28;19924;-85
2023/01/16 00:40:46;;;;;;;;;;;;;;;;;;5084190;28;19932;-84
2023/01/16 00:43:18;;;;;;;;;;;;;;;;;;5088244;28;20300;-85
2023/01/16 00:45:46;;;;;;;;;;;;;;;;;;5081389;28;20494;-85
2023/01/16 00:48:18;;;;;;;;;;;;;;;;;;5081120;28;20416;-85
2023/01/16 00:50:46;;;;;;;;;;;;;;;;;;5081078;28;19994;-85
2023/01/16 00:53:18;;;;;;;;;;;;;;;;;;5073446;28;19936;-86
2023/01/16 00:55:46;;;;;;;;;;;;;;;;;;5073157;28;19924;-85
2023/01/16 00:58:13;;;;;;;;;;;;;;;;;;5073396;28;19925;-85
2023/01/16 01:00:41;;;;;;;;;;;;;;;;;;5082549;28;19931;-85
2023/01/16 01:03:08;;;;;;;;;;;;;;;;;;5073312;28;19931;-85
2023/01/16 01:05:36;;;;;;;;;;;;;;;;;;5080474;28;19924;-84
2023/01/16 01:08:03;;;;;;;;;;;;;;;;;;5081326;28;19931;-84
2023/01/16 01:10:36;;;;;;;;;;;;;;;;;;5089652;28;20562;-86
2023/01/16 01:13:03;;;;;;;;;;;;;;;;;;5091808;28;20301;-86
2023/01/16 01:15:36;;;;;;;;;;;;;;;;;;5088343;28;19924;-86
2023/01/16 01:18:04;;;;;;;;;;;;;;;;;;5083208;28;19933;-85
2023/01/16 01:20:45;;;;;;;;;;;;;;;;;;5082474;28;20376;-86
2023/01/16 01:23:12;;;;;;;;;;;;;;;;;;5078130;28;19935;-86
2023/01/16 01:25:45;;;;;;;;;;;;;;;;;;5086651;28;19924;-85
2023/01/16 01:28:12;;;;;;;;;;;;;;;;;;5085704;28;19935;-85
2023/01/16 01:30:45;;;;;;;;;;;;;;;;;;5089225;28;19932;-85
2023/01/16 01:33:12;;;;;;;;;;;;;;;;;;5088192;28;19928;-85
2023/01/16 01:35:40;;;;;;;;;;;;;;;;;;5087285;28;19924;-86
2023/01/16 01:38:08;;;;;;;;;;;;;;;;;;5085005;28;19924;-85
2023/01/16 01:40:40;;;;;;;;;;;;;;;;;;5087793;28;20306;-84
2023/01/16 01:43:08;;;;;;;;;;;;;;;;;;5080777;28;19947;-84
2023/01/16 01:45:40;;;;;;;;;;;;;;;;;;5086059;28;19936;-85
2023/01/16 01:48:08;;;;;;;;;;;;;;;;;;5082949;28;19929;-85
2023/01/16 01:50:40;;;;;;;;;;;;;;;;;;5082205;28;19931;-85
2023/01/16 01:53:08;;;;;;;;;;;;;;;;;;5084390;28;19924;-86
2023/01/16 01:55:40;;;;;;;;;;;;;;;;;;5083564;28;20268;-84
2023/01/16 01:58:08;;;;;;;;;;;;;;;;;;5089368;28;19924;-86
2023/01/16 02:00:40;;;;;;;;;;;;;;;;;;5089650;28;19928;-86
2023/01/16 02:03:08;;;;;;;;;;;;;;;;;;5081043;28;19924;-84
2023/01/16 02:05:35;;;;;;;;;;;;;;;;;;5085085;28;19931;-84
2023/01/16 02:08:03;;;;;;;;;;;;;;;;;;5075547;28;19935;-84
2023/01/16 02:10:35;;;;;;;;;;;;;;;;;;5084383;28;20373;-85
2023/01/16 02:13:03;;;;;;;;;;;;;;;;;;5078963;28;19928;-85
2023/01/16 02:15:30;;;;;;;;;;;;;;;;;;5083509;28;20369;-86
2023/01/16 02:20:43;;;;;;;;;;;;;;;;;;5090767;28;19928;-85
2023/01/16 02:23:11;;;;;;;;;;;;;;;;;;5089070;28;19924;-85
2023/01/16 02:25:38;;;;;;;;;;;;;;;;;;5088927;28;19935;-85
2023/01/16 02:28:05;;;;;;;;;;;;;;;;;;5083301;28;19928;-84
2023/01/16 02:30:33;;;;;;;;;;;;;;;;;;5084414;28;19935;-85
2023/01/16 02:33:00;;;;;;;;;;;;;;;;;;5090199;28;19932;-86
2023/01/16 02:35:33;;;;;;;;;;;;;;;;;;5087752;28;20270;-85
2023/01/16 02:38:05;;;;;;;;;;;;;;;;;;5086662;28;19924;-85
2023/01/16 02:40:38;;;;;;;;;;;;;;;;;;5084899;28;19932;-86
2023/01/16 02:43:05;;;;;;;;;;;;;;;;;;5087445;28;19929;-85
2023/01/16 02:45:33;;;;;;;;;;;;;;;;;;5089456;28;19928;-83
2023/01/16 02:48:00;;;;;;;;;;;;;;;;;;5082675;28;19935;-86
2023/01/16 02:50:33;;;;;;;;;;;;;;;;;;5085160;28;19928;-87
2023/01/16 02:53:10;;;;;;;;;;;;;;;;;;5086845;28;20286;-85
2023/01/16 02:55:42;;;;;;;;;;;;;;;;;;5081568;28;20116;-85
2023/01/16 02:58:11;;;;;;;;;;;;;;;;;;5089358;28;19931;-85
2023/01/16 03:00:38;;;;;;;;;;;;;;;;;;5086063;28;19924;-85
2023/01/16 03:03:06;;;;;;;;;;;;;;;;;;5093067;28;19931;-85
2023/01/16 03:05:33;;;;;;;;;;;;;;;;;;5088446;28;20372;-86
2023/01/16 03:08:01;;;;;;;;;;;;;;;;;;5090311;28;19928;-84
2023/01/16 03:10:34;;;;;;;;;;;;;;;;;;5092807;28;19932;-86
2023/01/16 03:13:07;;;;;;;;;;;;;;;;;;5087344;28;19925;-86
2023/01/16 03:15:35;;;;;;;;;;;;;;;;;;5089343;28;19925;-86
2023/01/16 03:18:02;;;;;;;;;;;;;;;;;;5088904;28;20319;-85
2023/01/16 03:20:30;;;;;;;;;;;;;;;;;;5088177;28;19924;-86
2023/01/16 03:22:57;;;;;;;;;;;;;;;;;;5088371;28;19924;-83
2023/01/16 03:25:25;;;;;;;;;;;;;;;;;;5091496;28;19924;-86
2023/01/16 03:27:52;;;;;;;;;;;;;;;;;;5083755;28;19925;-85
2023/01/16 03:30:20;;;;;;;;;;;;;;;;;;5086057;28;19925;-83
2023/01/16 03:32:47;;;;;;;;;;;;;;;;;;5091262;28;19931;-87
2023/01/16 03:35:20;;;;;;;;;;;;;;;;;;5089577;28;19924;-86
2023/01/16 03:37:52;;;;;;;;;;;;;;;;;;5086630;28;20277;-86
2023/01/16 03:40:20;;;;;;;;;;;;;;;;;;5084848;28;19924;-83
2023/01/16 03:42:53;;;;;;;;;;;;;;;;;;5087655;28;19940;-85
2023/01/16 03:45:20;;;;;;;;;;;;;;;;;;5086580;28;19931;-86
2023/01/16 03:47:53;;;;;;;;;;;;;;;;;;5079752;28;20408;-86
2023/01/16 03:50:20;;;;;;;;;;;;;;;;;;5086228;28;19925;-85
2023/01/16 03:52:53;;;;;;;;;;;;;;;;;;5091276;28;19935;-86
2023/01/16 03:55:25;;;;;;;;;;;;;;;;;;5084818;28;19925;-85
2023/01/16 03:57:58;;;;;;;;;;;;;;;;;;5081946;28;19925;-85
2023/01/16 04:00:30;;;;;;;;;;;;;;;;;;5085839;28;19932;-86
2023/01/16 04:02:57;;;;;;;;;;;;;;;;;;5091209;28;20297;-86
2023/01/16 04:05:25;;;;;;;;;;;;;;;;;;5079774;28;19924;-86
2023/01/16 04:07:52;;;;;;;;;;;;;;;;;;5085947;28;19925;-86
2023/01/16 04:10:25;;;;;;;;;;;;;;;;;;5085760;28;19932;-86
2023/01/16 04:12:57;;;;;;;;;;;;;;;;;;5082139;28;19931;-86
2023/01/16 04:15:25;;;;;;;;;;;;;;;;;;5089511;28;20284;-85
2023/01/16 04:17:52;;;;;;;;;;;;;;;;;;5086966;28;20343;-84
2023/01/16 04:20:20;;;;;;;;;;;;;;;;;;5081970;28;19924;-86
2023/01/16 04:22:47;;;;;;;;;;;;;;;;;;5082043;28;19924;-87
2023/01/16 04:25:20;;;;;;;;;;;;;;;;;;5083790;28;19924;-86
2023/01/16 04:27:52;;;;;;;;;;;;;;;;;;5089353;28;19931;-86
2023/01/16 04:30:20;;;;;;;;;;;;;;;;;;5082303;28;20393;-86
2023/01/16 04:32:52;;;;;;;;;;;;;;;;;;5085953;28;19939;-86
2023/01/16 04:35:25;;;;;;;;;;;;;;;;;;5094155;28;19932;-85
2023/01/16 04:37:52;;;;;;;;;;;;;;;;;;5085994;28;20407;-86
2023/01/16 04:40:20;;;;;;;;;;;;;;;;;;5078858;28;19932;-85
2023/01/16 04:42:54;;;;;;;;;;;;;;;;;;5084312;28;19924;-85
2023/01/16 04:45:27;;;;;;;;;;;;;;;;;;5096286;28;20285;-86
2023/01/16 04:47:54;;;;;;;;;;;;;;;;;;5084299;28;19933;-86
2023/01/16 04:50:22;;;;;;;;;;;;;;;;;;5090953;28;19935;-86
2023/01/16 04:52:54;;;;;;;;;;;;;;;;;;5088692;28;19928;-85
2023/01/16 04:55:27;;;;;;;;;;;;;;;;;;5087052;28;19931;-86
2023/01/16 04:57:59;;;;;;;;;;;;;;;;;;5079847;28;19931;-85
2023/01/16 05:00:27;;;;;;;;;;;;;;;;;;5082008;28;19932;-85
2023/01/16 05:02:59;;;;;;;;;;;;;;;;;;5080937;28;19928;-86
2023/01/16 05:05:27;;;;;;;;;;;;;;;;;;5086820;28;19924;-86
2023/01/16 05:10:36;;;;;;;;;;;;;;;;;;5086410;28;19924;-85
2023/01/16 05:13:03;;;;;;;;;;;;;;;;;;5082664;28;20385;-86
2023/01/16 05:15:31;;;;;;;;;;;;;;;;;;5081619;28;19924;-86
2023/01/16 05:17:59;;;;;;;;;;;;;;;;;;5083862;28;19928;-86
2023/01/16 05:20:31;;;;;;;;;;;;;;;;;;5090170;28;20288;-86
2023/01/16 05:22:58;;;;;;;;;;;;;;;;;;5081233;28;19935;-86
2023/01/16 05:25:26;;;;;;;;;;;;;;;;;;5090587;28;19931;-86
2023/01/16 05:27:59;;;;;;;;;;;;;;;;;;5078707;28;19936;-86
2023/01/16 05:30:31;;;;;;;;;;;;;;;;;;5080492;28;19946;-86
2023/01/16 05:32:59;;;;;;;;;;;;;;;;;;5083418;28;19924;-86
2023/01/16 05:35:26;;;;;;;;;;;;;;;;;;5079328;28;20273;-86
2023/01/16 05:37:54;;;;;;;;;;;;;;;;;;5084581;28;19925;-86
2023/01/16 05:40:21;;;;;;;;;;;;;;;;;;5086913;28;19932;-86
2023/01/16 05:42:48;;;;;;;;;;;;;;;;;;5077067;28;20805;-86
2023/01/16 05:45:16;;;;;;;;;;;;;;;;;;5087164;28;19931;-86
2023/01/16 05:47:43;;;;;;;;;;;;;;;;;;5083363;28;19947;-86
2023/01/16 05:50:11;;;;;;;;;;;;;;;;;;5084195;28;19925;-86
2023/01/16 05:52:38;;;;;;;;;;;;;;;;;;5083666;28;19924;-86
2023/01/16 05:55:11;;;;;;;;;;;;;;;;;;5089129;28;19924;-86
2023/01/16 05:57:38;;;;;;;;;;;;;;;;;;5088206;28;19932;-85
2023/01/16 06:00:11;;;;;;;;;;;;;;;;;;5088297;28;19924;-87
2023/01/16 06:02:39;;;;;;;;;;;;;;;;;;5083249;28;20420;-86
2023/01/16 06:05:06;;;;;;;;;;;;;;;;;;5084323;28;19924;-86
2023/01/16 06:07:34;;;;;;;;;;;;;;;;;;5088336;28;19928;-86
2023/01/16 06:10:01;;;;;;;;;;;;;;;;;;5085099;28;19924;-85
2023/01/16 06:12:34;;;;;;;;;;;;;;;;;;5085584;28;19924;-86
2023/01/16 06:15:01;;;;;;;;;;;;;;;;;;5090155;28;19924;-86
2023/01/16 06:17:29;;;;;;;;;;;;;;;;;;5087200;28;19931;-86
2023/01/16 06:20:02;;;;;;;;;;;;;;;;;;5086972;28;19939;-85
2023/01/16 06:22:29;;;;;;;;;;;;;;;;;;5090124;28;20395;-85
2023/01/16 06:25:02;;;;;;;;;;;;;;;;;;5101378;28;20301;-86
2023/01/16 06:27:29;;;;;;;;;;;;;;;;;;5081873;28;20740;-85
2023/01/16 06:29:57;;;;;;;;;;;;;;;;;;5090620;28;19928;-86
2023/01/16 06:32:24;;;;;;;;;;;;;;;;;;5091248;28;19932;-86
2023/01/16 06:34:57;;;;;;;;;;;;;;;;;;5087287;28;19932;-86
2023/01/16 06:37:29;;;;;;;;;;;;;;;;;;5087478;28;19928;-86
2023/01/16 06:39:59;;;;;;;;;;;;;;;;;;5090888;28;19932;-85
2023/01/16 06:42:31;;;;;;;;;;;;;;;;;;5086050;28;20296;-86
2023/01/16 06:44:59;;;;;;;;;;;;;;;;;;5100201;28;19928;-86
2023/01/16 06:47:28;;;;;;;;;;;;;;;;;;5093659;28;20288;-86
2023/01/16 06:49:55;;;;;;;;;;;;;;;;;;5087776;28;19935;-86
2023/01/16 06:52:23;;;;;;;;;;;;;;;;;;5090086;28;19931;-86
2023/01/16 06:54:50;;;;;;;;;;;;;;;;;;5088450;28;19932;-86
2023/01/16 06:57:22;;;;;;;;;;;;;;;;;;5092003;28;19924;-85
2023/01/16 06:59:51;;;;;;;;;;;;;;;;;;5085550;28;19924;-86
2023/01/16 07:02:23;;;;;;;;;;;;;;;;;;5083616;28;19925;-85
2023/01/16 07:04:51;;;;;;;;;;;;;;;;;;5091974;28;19932;-85
2023/01/16 07:07:23;;;;;;;;;;;;;;;;;;5087075;28;20292;-86
2023/01/16 07:09:51;;;;;;;;;;;;;;;;;;5090521;28;19924;-85
2023/01/16 07:12:23;;;;;;;;;;;;;;;;;;5089177;28;19935;-85
2023/01/16 07:23:26;;;;;;;;;;;;;;;;;;5030930;28;19932;-85
2023/01/16 07:25:53;;;;;;;;;;;;;;;;;;5041697;28;19925;-85
2023/01/16 07:28:21;;;;;;;;;;;;;;;;;;5063225;28;19924;-85
2023/01/16 07:30:53;;;;;;;;;;;;;;;;;;5086036;28;19928;-86
2023/01/16 07:33:21;;;;;;;;;;;;;;;;;;5086545;28;19924;-87
2023/01/16 07:35:49;;;;;;;;;;;;;;;;;;5092748;28;19924;-87
2023/01/16 07:38:16;;;;;;;;;;;;;;;;;;5082759;28;19929;-86
2023/01/16 07:40:44;;;;;;;;;;;;;;;;;;5082003;28;19932;-87
2023/01/16 07:43:16;;;;;;;;;;;;;;;;;;5086864;28;20399;-89
2023/01/16 07:45:52;;;;;;;;;;;;;;;;;;5086057;28;19924;-86
2023/01/16 07:48:19;;;;;;;;;;;;;;;;;;5082060;28;19924;-86
2023/01/16 07:50:52;;;;;;;;;;;;;;;;;;5081786;28;20396;-85
2023/01/16 07:53:25;;;;;;;;;;;;;;;;;;5082304;28;20304;-84
2023/01/16 07:55:52;;;;;;;;;;;;;;;;;;5080666;28;19924;-87
2023/01/16 07:58:20;;;;;;;;;;;;;;;;;;5078248;28;19932;-86
2023/01/16 08:00:48;;;;;;;;;;;;;;;;;;5080651;28;19924;-87
2023/01/16 08:03:15;;;;;;;;;;;;;;;;;;5072723;28;19932;-85
2023/01/16 08:05:49;;;;;;;;;;;;;;;;;;5074303;28;19931;-85
2023/01/16 08:08:25;;;;;;;;;;;;;;;;;;5069425;28;19932;-86
2023/01/16 08:10:52;;;;;;;;;;;;;;;;;;5072547;28;19932;-85
2023/01/16 08:13:25;;;;;;;;;;;;;;;;;;5072044;28;19936;-82
2023/01/16 08:15:52;;;;;;;;;;;;;;;;;;5074443;28;19943;-83
2023/01/16 08:18:20;;;;;;;;;;;;;;;;;;5091992;28;19998;-86
2023/01/16 08:20:48;;;;;;;;;;;;;;;;;;5071534;28;19939;-84
2023/01/16 08:23:15;;;;;;;;;;;;;;;;;;5064796;28;19932;-83
2023/01/16 08:25:43;;;;;;;;;;;;;;;;;;5069765;28;19943;-84
2023/01/16 08:28:10;;;;;;;;;;;;;;;;;;5068695;28;19939;-85
2023/01/16 08:30:37;;;;;;;;;;;;;;;;;;5070717;28;19932;-88
2023/01/16 08:33:05;;;;;;;;;;;;;;;;;;5077340;28;20726;-86
2023/01/16 08:35:33;;;;;;;;;;;;;;;;;;5068244;28;19932;-85
2023/01/16 08:38:00;;;;;;;;;;;;;;;;;;5073606;28;19943;-85
2023/01/16 08:40:33;;;;;;;;;;;;;;;;;;5072983;28;19932;-85
2023/01/16 08:51:32;;;;;;;;;;;;;;;;;;5075733;28;19946;-86
2023/01/16 08:54:00;;;;;;;;;;;;;;;;;;5075702;28;19939;-87
2023/01/16 08:56:27;;;;;;;;;;;;;;;;;;5070997;28;19932;-84
2023/01/16 08:58:55;;;;;;;;;;;;;;;;;;5072917;28;19932;-85
2023/01/16 09:01:27;;;;;;;;;;;;;;;;;;5073829;28;19939;-86
2023/01/16 09:03:55;;;;;;;;;;;;;;;;;;5072823;28;20014;-87
2023/01/16 09:06:27;;;;;;;;;;;;;;;;;;5075086;28;20339;-87
2023/01/16 09:08:55;;;;;;;;;;;;;;;;;;5074208;28;19932;-85
2023/01/16 09:14:10;;;;;;;;;;;;;;;;;;5074207;28;19932;-87
2023/01/16 09:16:38;;;;;;;;;;;;;;;;;;5063316;28;19958;-86
2023/01/16 09:19:10;;;;;;;;;;;;;;;;;;5073510;28;19928;-88
2023/01/16 09:21:43;;;;;;;;;;;;;;;;;;5067581;28;19943;-84
2023/01/16 09:24:10;;;;;;;;;;;;;;;;;;5070135;28;19939;-85
2023/01/16 09:26:43;;;;;;;;;;;;;;;;;;5073182;28;20285;-84
2023/01/16 09:29:10;;;;;;;;;;;;;;;;;;5073266;28;19924;-85
2023/01/16 09:31:43;;;;;;;;;;;;;;;;;;5069070;28;19939;-87
2023/01/16 09:34:10;;;;;;;;;;;;;;;;;;5068202;28;19932;-85
2023/01/16 09:36:38;;;;;;;;;;;;;;;;;;5067363;28;19939;-84
2023/01/16 09:39:06;;;;;;;;;;;;;;;;;;5073993;28;20117;-85
2023/01/16 09:44:26;;;;;;;;;;;;;;;;;;5044473;28;19939;-83
2023/01/16 09:46:53;;;;;;;;;;;;;;;;;;5063737;28;19932;-86
2023/01/16 09:49:21;;;;;;;;;;;;;;;;;;5076333;28;19928;-86
2023/01/16 09:58:35;;;;;;;;;;;;;;;;;;5064062;28;19932;-83
2023/01/16 10:00:06;;;;;;;;;;;;;;;;;;5072475;28;19932;-83
2023/01/16 10:02:36;;;;;;;;;;;;;;;;;;5073537;28;19939;-85
2023/01/16 10:05:04;;;;;;;;;;;;;;;;;;5071506;28;19931;-86
2023/01/16 10:07:37;;;;;;;;;;;;;;;;;;5067770;28;20308;-86
2023/01/16 10:10:10;;;;;;;;;;;;;;;;;;5069115;28;19932;-87
2023/01/16 10:12:42;;;;;;;;;;;;;;;;;;5067540;28;19939;-85
2023/01/16 10:15:10;;;;;;;;;;;;;;;;;;5071841;28;19933;-85
2023/01/16 10:17:37;;;;;;;;;;;;;;;;;;5068684;28;19932;-86
2023/01/16 10:20:05;;;;;;;;;;;;;;;;;;5066893;28;21214;-84
2023/01/16 10:22:37;;;;;;;;;;;;;;;;;;5067990;28;19939;-84
2023/01/16 10:25:05;;;;;;;;;;;;;;;;;;5070109;28;20197;-85
2023/01/16 10:27:32;;;;;;;;;;;;;;;;;;5065740;28;19939;-85
2023/01/16 10:30:05;;;;;;;;;;;;;;;;;;5067471;28;20744;-87
2023/01/16 10:32:37;;;;;;;;;;;;;;;;;;5067603;28;19932;-84
2023/01/16 10:35:10;;;;;;;;;;;;;;;;;;5066249;28;19939;-83
2023/01/16 10:37:38;;;;;;;;;;;;;;;;;;5068755;28;20423;-86
2023/01/16 10:40:10;;;;;;;;;;;;;;;;;;5083680;28;19932;-85
2023/01/16 10:51:08;;;;;;;;;;;;;;;;;;5069709;28;19932;-85
2023/01/16 10:53:36;;;;;;;;;;;;;;;;;;5066235;28;19932;-87
2023/01/16 10:56:08;;;;;;;;;;;;;;;;;;5070728;28;19932;-84
2023/01/16 10:58:36;;;;;;;;;;;;;;;;;;5068716;28;20736;-85
2023/01/16 11:01:03;;;;;;;;;;;;;;;;;;5065379;28;19932;-84
2023/01/16 11:03:36;;;;;;;;;;;;;;;;;;5065344;28;20221;-87
2023/01/16 11:06:03;;;;;;;;;;;;;;;;;;5075037;28;20380;-85
2023/01/16 11:08:36;;;;;;;;;;;;;;;;;;5069660;28;19932;-86
2023/01/16 11:18:27;;;;;;;;;;;;;;;;;;5066382;28;19939;-88
2023/01/16 11:19:41;;;;;;;;;;;;;;;;;;5068386;28;19939;-84
2023/01/16 11:22:16;;;;;;;;;;;;;;;;;;5065580;28;20675;-85
2023/01/16 11:24:49;;;;;;;;;;;;;;;;;;5065501;28;19932;-82
2023/01/16 11:27:16;;;;;;;;;;;;;;;;;;5068130;28;19939;-83
2023/01/16 11:29:49;;;;;;;;;;;;;;;;;;5063584;28;19939;-87
2023/01/16 11:32:17;;;;;;;;;;;;;;;;;;5062086;28;20144;-85
2023/01/16 11:34:50;;;;;;;;;;;;;;;;;;5068188;28;20388;-86
2023/01/16 11:37:22;;;;;;;;;;;;;;;;;;5066715;28;20424;-86
2023/01/16 11:39:50;;;;;;;;;;;;;;;;;;5067125;28;20029;-85
2023/01/16 11:47:46;;;;;;;;;;;;;;;;;;5065595;28;20356;-83
2023/01/16 11:50:19;;;;;;;;;;;;;;;;;;5075286;28;19935;-83
2023/01/16 11:52:46;;;;;;;;;;;;;;;;;;5065234;28;21189;-84
2023/01/16 11:55:19;;;;;;;;;;;;;;;;;;5062152;28;19938;-84
2023/01/16 11:57:47;;;;;;;;;;;;;;;;;;5066997;28;19939;-85
2023/01/16 12:00:14;;;;;;;;;;;;;;;;;;5069124;28;20128;-84
2023/01/16 12:02:47;;;;;;;;;;;;;;;;;;5068446;28;21292;-86
2023/01/16 12:08:00;;;;;;;;;;;;;;;;;;5066614;28;19967;-86
2023/01/16 12:10:27;;;;;;;;;;;;;;;;;;5065773;28;19931;-86
2023/01/16 12:15:40;;;;;;;;;;;;;;;;;;5066135;28;19939;-84
2023/01/16 12:18:12;;;;;;;;;;;;;;;;;;5070040;28;19935;-88
2023/01/16 12:20:40;;;;;;;;;;;;;;;;;;5063892;28;20299;-83
2023/01/16 12:23:12;;;;;;;;;;;;;;;;;;5065178;28;19932;-87
2023/01/16 12:25:40;;;;;;;;;;;;;;;;;;5065834;28;19943;-85
2023/01/16 12:28:08;;;;;;;;;;;;;;;;;;5066434;28;19932;-85
2023/01/16 12:30:35;;;;;;;;;;;;;;;;;;5071993;28;19938;-84
2023/01/16 12:33:12;;;;;;;;;;;;;;;;;;5065311;28;19932;-82
2023/01/16 12:35:44;;;;;;;;;;;;;;;;;;5069623;28;19947;-84
2023/01/16 12:38:17;;;;;;;;;;;;;;;;;;5063267;28;19932;-87
2023/01/16 12:40:45;;;;;;;;;;;;;;;;;;5062484;28;19938;-86
2023/01/16 12:43:18;;;;;;;;;;;;;;;;;;5058765;28;19947;-84
2023/01/16 12:45:46;;;;;;;;;;;;;;;;;;5067838;28;20730;-84
2023/01/16 12:48:18;;;;;;;;;;;;;;;;;;5065208;28;20497;-84
2023/01/16 12:50:46;;;;;;;;;;;;;;;;;;5067141;28;19932;-87
2023/01/16 12:53:18;;;;;;;;;;;;;;;;;;5065173;28;19932;-83
2023/01/16 12:55:52;;;;;;;;;;;;;;;;;;5069716;28;19939;-83
2023/01/16 12:58:21;;;;;;;;;;;;;;;;;;5085266;28;19932;-86
2023/01/16 13:00:48;;;;;;;;;;;;;;;;;;5070515;28;19932;-85
2023/01/16 13:03:21;;;;;;;;;;;;;;;;;;5067947;28;19935;-86
2023/01/16 13:05:48;;;;;;;;;;;;;;;;;;5070426;28;19932;-86
2023/01/16 13:08:21;;;;;;;;;;;;;;;;;;5064467;28;21287;-85
2023/01/16 13:13:38;;;;;;;;;;;;;;;;;;5073050;28;19939;-88
2023/01/16 13:16:06;;;;;;;;;;;;;;;;;;5070740;28;19986;-86
2023/01/16 13:18:39;;;;;;;;;;;;;;;;;;5074378;28;21304;-86
2023/01/16 13:21:06;;;;;;;;;;;;;;;;;;5062634;28;19967;-84
2023/01/16 13:23:39;;;;;;;;;;;;;;;;;;5063303;28;20506;-86
2023/01/16 13:26:07;;;;;;;;;;;;;;;;;;5061560;28;20417;-84
2023/01/16 13:28:34;;;;;;;;;;;;;;;;;;5062328;28;21230;-86
2023/01/16 13:31:07;;;;;;;;;;;;;;;;;;5071478;28;19932;-87
2023/01/16 13:33:34;;;;;;;;;;;;;;;;;;5070562;28;19932;-85
2023/01/16 13:36:07;;;;;;;;;;;;;;;;;;5066509;28;20407;-85
2023/01/16 13:38:36;;;;;;;;;;;;;;;;;;5070209;28;20838;-85
2023/01/16 13:41:07;;;;;;;;;;;;;;;;;;5072082;28;19942;-88
2023/01/16 13:46:29;;;;;;;;;;;;;;;;;;5069983;28;19932;-87
2023/01/16 13:48:57;;;;;;;;;;;;;;;;;;5071320;28;19932;-85
2023/01/16 13:51:29;;;;;;;;;;;;;;;;;;5068283;28;19932;-88
2023/01/16 13:53:58;;;;;;;;;;;;;;;;;;5067332;28;19932;-86
2023/01/16 13:56:31;;;;;;;;;;;;;;;;;;5064163;28;19940;-84
2023/01/16 13:58:59;;;;;;;;;;;;;;;;;;5069829;28;19932;-87
2023/01/16 14:01:27;;;;;;;;;;;;;;;;;;5085011;28;19924;-85
2023/01/16 14:03:54;;;;;;;;;;;;;;;;;;5066143;28;19943;-87
2023/01/16 14:06:22;;;;;;;;;;;;;;;;;;5066125;28;20595;-86
2023/01/16 14:09:04;;;;;;;;;;;;;;;;;;5063226;28;19932;-86
2023/01/16 14:11:36;;;;;;;;;;;;;;;;;;5063356;28;21161;-85
2023/01/16 14:14:04;;;;;;;;;;;;;;;;;;5070754;28;19931;-86
2023/01/16 14:16:37;;;;;;;;;;;;;;;;;;5073039;28;19939;-84
2023/01/16 14:19:05;;;;;;;;;;;;;;;;;;5076163;28;19932;-88
2023/01/16 14:21:33;;;;;;;;;;;;;;;;;;5072495;28;19932;-86
2023/01/16 14:24:03;;;;;;;;;;;;;;;;;;5065939;28;19947;-84
2023/01/16 14:26:30;;;;;;;;;;;;;;;;;;5072430;28;19932;-85
2023/01/16 14:28:58;;;;;;;;;;;;;;;;;;5068010;28;20411;-87
2023/01/16 14:31:31;;;;;;;;;;;;;;;;;;5074142;28;19932;-84
2023/01/16 14:34:03;;;;;;;;;;;;;;;;;;5072360;28;19932;-87
2023/01/16 14:36:36;;;;;;;;;;;;;;;;;;5077948;28;20422;-86
2023/01/16 14:39:03;;;;;;;;;;;;;;;;;;5074856;28;19932;-87
2023/01/16 14:55:18;;;;;;;;;;;;;;;;;;5051082;28;20369;-83
2023/01/16 14:57:46;;;;;;;;;;;;;;;;;;5077312;28;19943;-86
2023/01/16 15:00:14;;;;;;;;;;;;;;;;;;5071188;28;20324;-86
2023/01/16 15:02:47;;;;;;;;;;;;;;;;;;5069985;28;20406;-85
2023/01/16 15:05:20;;;;;;;;;;;;;;;;;;5073132;28;20380;-86
2023/01/16 15:07:47;;;;;;;;;;;;;;;;;;5066093;28;20408;-85
2023/01/16 15:10:15;;;;;;;;;;;;;;;;;;5077632;28;19928;-87
2023/01/16 15:12:42;;;;;;;;;;;;;;;;;;5071949;28;19932;-87
2023/01/16 15:15:10;;;;;;;;;;;;;;;;;;5071182;28;19932;-85
2023/01/16 15:23:13;;;;;;;;;;;;;;;;;;5071982;28;19932;-86
2023/01/16 15:25:40;;;;;;;;;;;;;;;;;;5070994;28;19932;-86
2023/01/16 15:28:08;;;;;;;;;;;;;;;;;;5075803;28;21133;-86
2023/01/16 15:30:40;;;;;;;;;;;;;;;;;;5075132;28;19932;-84
2023/01/16 15:35:52;;;;;;;;;;;;;;;;;;5060406;28;19932;-87
2023/01/16 15:38:25;;;;;;;;;;;;;;;;;;5082250;28;19932;-86
2023/01/16 15:40:54;;;;;;;;;;;;;;;;;;5069152;28;19932;-85
2023/01/16 15:48:52;;;;;;;;;;;;;;;;;;5060621;28;20571;-87
2023/01/16 15:51:24;;;;;;;;;;;;;;;;;;5063525;28;19939;-87
2023/01/16 15:53:59;;;;;;;;;;;;;;;;;;5065384;28;19943;-87
2023/01/16 15:56:31;;;;;;;;;;;;;;;;;;5069838;28;20101;-86
2023/01/16 15:58:59;;;;;;;;;;;;;;;;;;5067902;28;20077;-86
2023/01/16 16:01:31;;;;;;;;;;;;;;;;;;5065501;28;19932;-87
2023/01/16 16:03:59;;;;;;;;;;;;;;;;;;5066089;28;19939;-86
2023/01/16 16:06:28;;;;;;;;;;;;;;;;;;5069657;28;19939;-84
2023/01/16 16:08:58;;;;;;;;;;;;;;;;;;5066909;28;21496;-85
2023/01/16 16:19:43;;;;;;;;;;;;;;;;;;5068478;28;20483;-84
2023/01/16 16:25:01;;;;;;;;;;;;;;;;;;5063793;28;19932;-84
2023/01/16 16:27:30;;;;;;;;;;;;;;;;;;5069888;28;19932;-85
2023/01/16 16:30:03;;;;;;;;;;;;;;;;;;5069157;28;19943;-85
2023/01/16 16:32:35;;;;;;;;;;;;;;;;;;5068918;28;19924;-85
2023/01/16 16:35:03;;;;;;;;;;;;;;;;;;5070394;28;19935;-83
2023/01/16 16:37:30;;;;;;;;;;;;;;;;;;5070408;28;19965;-87
2023/01/16 16:39:58;;;;;;;;;;;;;;;;;;5073708;28;19943;-84
2023/01/16 16:42:29;;;;;;;;;;;;;;;;;;5071336;28;19932;-86
2023/01/16 16:44:56;;;;;;;;;;;;;;;;;;5071462;28;19959;-87
2023/01/16 16:47:29;;;;;;;;;;;;;;;;;;5071187;28;19936;-87
2023/01/16 16:49:56;;;;;;;;;;;;;;;;;;5077407;28;19932;-85
2023/01/16 16:52:24;;;;;;;;;;;;;;;;;;5075539;28;21292;-85
2023/01/16 16:54:51;;;;;;;;;;;;;;;;;;5078014;28;19936;-89
2023/01/16 16:57:24;;;;;;;;;;;;;;;;;;5067451;28;19935;-90
2023/01/16 16:59:52;;;;;;;;;;;;;;;;;;5068315;28;19939;-87
2023/01/16 17:02:20;;;;;;;;;;;;;;;;;;5073678;28;20413;-87
2023/01/16 17:04:47;;;;;;;;;;;;;;;;;;5074372;28;19932;-87
2023/01/16 17:07:15;;;;;;;;;;;;;;;;;;5089524;28;20515;-87
2023/01/16 17:09:42;;;;;;;;;;;;;;;;;;5075122;28;19932;-85
2023/01/16 17:12:10;;;;;;;;;;;;;;;;;;5069255;28;19932;-88
2023/01/16 17:14:45;;;;;;;;;;;;;;;;;;5072606;28;19924;-83
2023/01/16 17:17:12;;;;;;;;;;;;;;;;;;5071986;28;19924;-86
2023/01/16 17:19:40;;;;;;;;;;;;;;;;;;5068098;28;19943;-85
2023/01/16 17:22:07;;;;;;;;;;;;;;;;;;5068011;28;20864;-90
2023/01/16 17:24:35;;;;;;;;;;;;;;;;;;5067778;28;19958;-85
2023/01/16 17:27:10;;;;;;;;;;;;;;;;;;5079020;28;19940;-87
2023/01/16 17:29:42;;;;;;;;;;;;;;;;;;5070888;28;19955;-88
2023/01/16 17:32:09;;;;;;;;;;;;;;;;;;5071030;28;21328;-89
2023/01/16 17:34:36;;;;;;;;;;;;;;;;;;5073564;28;20425;-87
2023/01/16 17:37:06;;;;;;;;;;;;;;;;;;5071767;28;20522;-89
2023/01/16 17:39:34;;;;;;;;;;;;;;;;;;5068828;28;19932;-84
2023/01/16 17:47:45;;;;;;;;;;;;;;;;;;5025863;28;19932;-85
2023/01/16 17:50:22;;;;;;;;;;;;;;;;;;5078555;28;20263;-88
2023/01/16 17:52:54;;;;;;;;;;;;;;;;;;5070837;28;19932;-85
2023/01/16 17:58:08;;;;;;;;;;;;;;;;;;5065302;28;19932;-83
2023/01/16 18:00:39;;;;;;;;;;;;;;;;;;5061349;28;19932;-87
2023/01/16 18:03:07;;;;;;;;;;;;;;;;;;5061555;28;19932;-84
2023/01/16 18:05:35;;;;;;;;;;;;;;;;;;5064658;28;19932;-86
2023/01/16 18:08:02;;;;;;;;;;;;;;;;;;5093083;27;19928;-84
2023/01/16 18:10:30;;;;;;;;;;;;;;;;;;5073758;28;20432;-90
2023/01/16 18:18:34;;;;;;;;;;;;;;;;;;5071102;28;20253;-87
2023/01/16 18:23:52;;;;;;;;;;;;;;;;;;5094606;28;20203;-87
2023/01/16 18:26:19;;;;;;;;;;;;;;;;;;5068630;28;19932;-84
2023/01/16 18:28:49;;;;;;;;;;;;;;;;;;5076719;28;19965;-87
2023/01/16 18:31:17;;;;;;;;;;;;;;;;;;5076944;28;19932;-88
2023/01/16 18:33:46;;;;;;;;;;;;;;;;;;5076188;28;21239;-88
2023/01/16 18:36:15;;;;;;;;;;;;;;;;;;5075524;28;20611;-86
2023/01/16 19:03:42;;;;;;;;;;;;;;;;;;5073779;28;19939;-86
2023/01/16 19:06:10;;;;;;;;;;;;;;;;;;5071081;28;20300;-87
2023/01/16 19:08:40;;;;;;;;;;;;;;;;;;5072113;28;19928;-85
2023/01/16 19:11:13;;;;;;;;;;;;;;;;;;5065265;28;19928;-90
2023/01/16 19:13:41;;;;;;;;;;;;;;;;;;5066961;28;20771;-85
2023/01/16 19:18:59;;;;;;;;;;;;;;;;;;5070011;28;19932;-87
2023/01/16 19:21:27;;;;;;;;;;;;;;;;;;5069015;28;19928;-89
2023/01/16 19:23:55;;;;;;;;;;;;;;;;;;5067655;28;19947;-83
2023/01/16 19:26:22;;;;;;;;;;;;;;;;;;5067965;28;20533;-88
2023/01/16 19:28:50;;;;;;;;;;;;;;;;;;5073073;28;19939;-88